Time;durP1;ratioP1;P1;durP2;ratioP2;P2;SDS_P1;SDS_P2;PMS_P1;PMS_P2;Temp;Humidity;BMP_temperature;BMP_pressure;BME280_temperature;BME280_humidity;BME280_pressure;Samples;Min_cycle;Max_cycle;Signal;HPM_P1;HPM_P2
2023/09/01 00:01:48;;;;;;;;;;;22.00;99.90;;;;;;5116119;28;20420;-67
2023/09/01 00:04:14;;;;;;;;;;;22.00;99.90;;;;;;5097720;28;19908;-67
2023/09/01 00:06:40;;;;;;;;;;;22.00;99.90;;;;;;5116018;28;20002;-67
2023/09/01 00:09:05;;;;;;;;;;;22.00;99.90;;;;;;5116282;28;19939;-68
2023/09/01 00:11:32;;;;;;;;;;;22.10;99.90;;;;;;5115923;28;20317;-69
2023/09/01 00:13:57;;;;;;;;;;;22.10;99.90;;;;;;5115876;28;19915;-69
2023/09/01 00:16:23;;;;;;;;;;;22.00;99.90;;;;;;5097475;28;19909;-68
2023/09/01 00:18:49;;;;;;;;;;;22.00;99.90;;;;;;5097800;28;20382;-68
2023/09/01 00:21:16;;;;;;;;;;;21.90;99.90;;;;;;5116083;28;19907;-68
2023/09/01 00:23:42;;;;;;;;;;;21.90;99.90;;;;;;5115470;28;19911;-68
2023/09/01 00:26:07;;;;;;;;;;;21.90;99.90;;;;;;5115598;28;20329;-68
2023/09/01 00:28:33;;;;;;;;;;;22.00;99.90;;;;;;5116184;28;19915;-68
2023/09/01 00:31:00;;;;;;;;;;;22.00;99.90;;;;;;5115633;28;20021;-69
2023/09/01 00:33:29;;;;;;;;;;;22.00;99.90;;;;;;5116073;28;19908;-68
2023/09/01 00:35:55;;;;;;;;;;;21.90;99.90;;;;;;5115207;28;19915;-69
2023/09/01 00:38:21;;;;;;;;;;;21.80;99.90;;;;;;5115331;28;19976;-69
2023/09/01 00:40:50;;;;;;;;;;;21.70;99.90;;;;;;5115429;28;20355;-70
2023/09/01 00:43:16;;;;;;;;;;;21.70;99.90;;;;;;5115664;28;19908;-71
2023/09/01 00:45:42;;;;;;;;;;;21.70;99.90;;;;;;5115286;28;19915;-67
2023/09/01 00:48:10;;;;;;;;;;;21.70;99.90;;;;;;5115191;28;19922;-68
2023/09/01 00:50:36;;;;;;;;;;;21.70;99.90;;;;;;5096950;28;20045;-69
2023/09/01 00:53:05;;;;;;;;;;;21.70;99.90;;;;;;5115228;28;19908;-68
2023/09/01 00:55:35;;;;;;;;;;;21.60;99.90;;;;;;5115088;28;19974;-68
2023/09/01 00:58:02;;;;;;;;;;;21.50;99.90;;;;;;5115080;28;19951;-68
2023/09/01 01:00:28;;;;;;;;;;;21.50;99.90;;;;;;5114908;28;19908;-68
2023/09/01 01:02:55;;;;;;;;;;;21.60;99.90;;;;;;5114877;28;19930;-67
2023/09/01 01:05:26;;;;;;;;;;;21.60;99.90;;;;;;5115314;28;19908;-68
2023/09/01 01:08:05;;;;;;;;;;;21.60;99.90;;;;;;5114858;28;20011;-68
2023/09/01 01:10:34;;;;;;;;;;;21.60;99.90;;;;;;5114681;28;20002;-68
2023/09/01 01:13:05;;;;;;;;;;;21.60;99.90;;;;;;5115294;28;19908;-68
2023/09/01 01:15:32;;;;;;;;;;;21.50;99.90;;;;;;5114708;28;19912;-68
2023/09/01 01:18:00;;;;;;;;;;;21.40;99.90;;;;;;5115217;28;19914;-69
2023/09/01 01:20:31;;;;;;;;;;;21.30;99.90;;;;;;5114551;28;20339;-68
2023/09/01 01:23:04;;;;;;;;;;;21.40;99.90;;;;;;5114861;28;19907;-68
2023/09/01 01:25:29;;;;;;;;;;;21.40;99.90;;;;;;5114391;28;20271;-68
2023/09/01 01:27:56;;;;;;;;;;;21.40;99.90;;;;;;5114414;28;19968;-68
2023/09/01 01:30:22;;;;;;;;;;;21.40;99.90;;;;;;5114377;28;19908;-68
2023/09/01 01:32:49;;;;;;;;;;;21.40;99.90;;;;;;5114410;28;19930;-68
2023/09/01 01:35:24;;;;;;;;;;;21.40;99.90;;;;;;5114596;28;20271;-68
2023/09/01 01:37:59;;;;;;;;;;;21.40;99.90;;;;;;5114114;28;19920;-68
2023/09/01 01:40:28;;;;;;;;;;;21.30;99.90;;;;;;5114035;28;19907;-67
2023/09/01 01:42:55;;;;;;;;;;;21.30;99.90;;;;;;5114217;28;19908;-67
2023/09/01 01:45:22;;;;;;;;;;;21.30;99.90;;;;;;5114458;28;19943;-69
2023/09/01 01:47:50;;;;;;;;;;;21.30;99.90;;;;;;5114045;28;19916;-67
2023/09/01 01:50:16;;;;;;;;;;;21.20;99.90;;;;;;5114099;28;19908;-67
2023/09/01 01:52:42;;;;;;;;;;;21.20;99.90;;;;;;5114066;28;19930;-67
2023/09/01 01:55:09;;;;;;;;;;;21.20;99.90;;;;;;5114015;28;20275;-68
2023/09/01 01:57:36;;;;;;;;;;;21.10;99.90;;;;;;5095758;28;19908;-69
2023/09/01 02:00:03;;;;;;;;;;;21.00;99.90;;;;;;5114072;28;20409;-67
2023/09/01 02:02:29;;;;;;;;;;;21.00;99.90;;;;;;5114078;28;19954;-68
2023/09/01 02:04:55;;;;;;;;;;;20.90;99.90;;;;;;5114834;28;19943;-68
2023/09/01 02:07:21;;;;;;;;;;;21.00;99.90;;;;;;5113917;28;19915;-68
2023/09/01 02:09:47;;;;;;;;;;;20.90;99.90;;;;;;5113895;28;20256;-68
2023/09/01 02:12:12;;;;;;;;;;;20.80;99.90;;;;;;5114257;28;20352;-67
2023/09/01 02:14:38;;;;;;;;;;;20.70;99.90;;;;;;5113932;28;19908;-68
2023/09/01 02:17:05;;;;;;;;;;;20.70;99.90;;;;;;5114429;28;19907;-69
2023/09/01 02:19:31;;;;;;;;;;;20.60;99.90;;;;;;5113888;28;19914;-68
2023/09/01 02:21:57;;;;;;;;;;;20.60;99.90;;;;;;5114508;28;20002;-68
2023/09/01 02:24:22;;;;;;;;;;;20.50;99.90;;;;;;5113672;28;19915;-68
2023/09/01 02:26:48;;;;;;;;;;;20.50;99.90;;;;;;5113724;28;19912;-68
2023/09/01 02:29:14;;;;;;;;;;;20.50;99.90;;;;;;5114365;28;19965;-69
2023/09/01 02:31:40;;;;;;;;;;;20.50;99.90;;;;;;5113754;28;19908;-68
2023/09/01 02:34:06;;;;;;;;;;;20.50;99.90;;;;;;5114048;28;19915;-68
2023/09/01 02:36:33;;;;;;;;;;;20.50;99.90;;;;;;5113516;28;19920;-68
2023/09/01 02:38:59;;;;;;;;;;;20.60;99.90;;;;;;5113902;28;20313;-68
2023/09/01 02:41:25;;;;;;;;;;;20.50;99.90;;;;;;5113959;28;20352;-69
2023/09/01 02:43:51;;;;;;;;;;;20.50;99.90;;;;;;5114008;28;19908;-69
2023/09/01 02:46:17;;;;;;;;;;;20.40;99.90;;;;;;5113581;28;19922;-68
2023/09/01 02:48:43;;;;;;;;;;;20.40;99.90;;;;;;5113901;28;19912;-68
2023/09/01 02:51:09;;;;;;;;;;;20.40;99.90;;;;;;5113524;28;19919;-68
2023/09/01 02:53:35;;;;;;;;;;;20.50;99.90;;;;;;5113468;28;19930;-69
2023/09/01 02:56:02;;;;;;;;;;;20.50;99.90;;;;;;5114119;28;19922;-68
2023/09/01 02:58:28;;;;;;;;;;;20.40;99.90;;;;;;5113319;28;19953;-68
2023/09/01 03:00:53;;;;;;;;;;;20.40;99.90;;;;;;5113575;28;20305;-68
2023/09/01 03:03:20;;;;;;;;;;;20.30;99.90;;;;;;5114000;28;19911;-70
2023/09/01 03:05:46;;;;;;;;;;;20.30;99.90;;;;;;5113461;28;20193;-68
2023/09/01 03:08:12;;;;;;;;;;;20.30;99.90;;;;;;5113399;28;19915;-68
2023/09/01 03:10:38;;;;;;;;;;;20.20;99.90;;;;;;5113382;28;19915;-68
2023/09/01 03:13:04;;;;;;;;;;;20.20;99.90;;;;;;5113435;28;19915;-68
2023/09/01 03:15:31;;;;;;;;;;;20.20;99.90;;;;;;5115881;28;19907;-68
2023/09/01 03:17:57;;;;;;;;;;;20.20;99.90;;;;;;5116940;28;19920;-68
2023/09/01 03:20:23;;;;;;;;;;;20.20;99.90;;;;;;5116980;28;19908;-68
2023/09/01 03:22:49;;;;;;;;;;;20.20;99.90;;;;;;5098441;28;20316;-68
2023/09/01 03:25:15;;;;;;;;;;;20.20;99.90;;;;;;5116722;28;19908;-68
2023/09/01 03:27:41;;;;;;;;;;;20.10;99.90;;;;;;5116696;28;19970;-68
2023/09/01 03:30:07;;;;;;;;;;;20.20;99.90;;;;;;5116829;28;19908;-68
2023/09/01 03:32:33;;;;;;;;;;;20.10;99.90;;;;;;5116988;28;19912;-68
2023/09/01 03:34:59;;;;;;;;;;;20.20;99.90;;;;;;5117011;28;19912;-69
2023/09/01 03:37:25;;;;;;;;;;;20.20;99.90;;;;;;5116469;28;20395;-67
2023/09/01 03:39:51;;;;;;;;;;;20.20;99.90;;;;;;5116728;28;19915;-70
2023/09/01 03:42:17;;;;;;;;;;;20.20;99.90;;;;;;5116815;28;20280;-70
2023/09/01 03:44:43;;;;;;;;;;;20.20;99.90;;;;;;5116519;28;19908;-68
2023/09/01 03:47:10;;;;;;;;;;;20.20;99.90;;;;;;5116417;28;19985;-69
2023/09/01 03:49:36;;;;;;;;;;;20.20;99.90;;;;;;5116552;28;19908;-68
2023/09/01 03:52:03;;;;;;;;;;;20.30;99.90;;;;;;5116333;28;19915;-68
2023/09/01 03:54:28;;;;;;;;;;;20.40;99.90;;;;;;5116137;28;19943;-68
2023/09/01 03:56:54;;;;;;;;;;;20.30;99.90;;;;;;5117057;28;19943;-68
2023/09/01 03:59:20;;;;;;;;;;;20.40;99.90;;;;;;5116483;28;20399;-68
2023/09/01 04:01:46;;;;;;;;;;;20.50;99.90;;;;;;5116222;28;19908;-68
2023/09/01 04:04:13;;;;;;;;;;;20.40;99.90;;;;;;5116128;28;20343;-68
2023/09/01 04:06:39;;;;;;;;;;;20.40;99.90;;;;;;5115954;28;19916;-68
2023/09/01 04:09:05;;;;;;;;;;;20.40;99.90;;;;;;5116017;28;19919;-67
2023/09/01 04:11:31;;;;;;;;;;;20.30;99.90;;;;;;5116037;28;19995;-68
2023/09/01 04:13:57;;;;;;;;;;;20.30;99.90;;;;;;5115867;28;19954;-69
2023/09/01 04:16:23;;;;;;;;;;;20.30;99.90;;;;;;5116514;28;19943;-69
2023/09/01 04:18:49;;;;;;;;;;;20.20;99.90;;;;;;5115782;28;20447;-69
2023/09/01 04:21:15;;;;;;;;;;;20.20;99.90;;;;;;5115818;28;19955;-69
2023/09/01 04:23:41;;;;;;;;;;;20.20;99.90;;;;;;5115610;28;20094;-69
2023/09/01 04:26:07;;;;;;;;;;;20.10;99.90;;;;;;5096921;28;19995;-69
2023/09/01 04:28:33;;;;;;;;;;;20.10;99.90;;;;;;5115631;28;19941;-68
2023/09/01 04:30:59;;;;;;;;;;;20.20;99.90;;;;;;5115625;28;20351;-69
2023/09/01 04:33:26;;;;;;;;;;;20.10;99.90;;;;;;5097249;28;19907;-68
2023/09/01 04:35:59;;;;;;;;;;;20.20;99.90;;;;;;5093633;28;19912;-68
2023/09/01 04:38:24;;;;;;;;;;;20.10;99.90;;;;;;5095047;28;19912;-69
2023/09/01 04:40:57;;;;;;;;;;;20.10;99.90;;;;;;5093853;28;19915;-69
2023/09/01 04:43:25;;;;;;;;;;;20.10;99.90;;;;;;5093715;28;20387;-69
2023/09/01 04:45:51;;;;;;;;;;;20.20;99.90;;;;;;5093497;28;20417;-70
2023/09/01 04:48:17;;;;;;;;;;;20.20;99.90;;;;;;5094812;28;19916;-70
2023/09/01 04:50:43;;;;;;;;;;;20.20;99.90;;;;;;5095002;28;19908;-69
2023/09/01 04:53:09;;;;;;;;;;;20.20;99.90;;;;;;5094717;28;19922;-67
2023/09/01 04:55:36;;;;;;;;;;;20.30;99.90;;;;;;5094576;28;19990;-68
2023/09/01 04:58:02;;;;;;;;;;;20.20;99.90;;;;;;5094750;28;19986;-68
2023/09/01 05:00:27;;;;;;;;;;;20.30;99.90;;;;;;5094682;28;20364;-68
2023/09/01 05:02:53;;;;;;;;;;;20.20;99.90;;;;;;5094492;28;19923;-69
2023/09/01 05:05:19;;;;;;;;;;;20.30;99.90;;;;;;5094717;28;19978;-68
2023/09/01 05:07:45;;;;;;;;;;;20.30;99.90;;;;;;5094629;28;19920;-68
2023/09/01 05:10:10;;;;;;;;;;;20.30;99.90;;;;;;5094352;28;20274;-70
2023/09/01 05:12:36;;;;;;;;;;;20.30;99.90;;;;;;5094696;28;19908;-68
2023/09/01 05:15:03;;;;;;;;;;;20.30;99.90;;;;;;5094005;28;20419;-69
2023/09/01 05:17:30;;;;;;;;;;;20.30;99.90;;;;;;5093903;28;19915;-68
2023/09/01 05:19:56;;;;;;;;;;;20.40;99.90;;;;;;5093915;28;19908;-68
2023/09/01 05:22:23;;;;;;;;;;;20.60;99.90;;;;;;5093798;28;20366;-68
2023/09/01 05:24:49;;;;;;;;;;;21.30;99.90;;;;;;5093958;28;20356;-69
2023/09/01 05:27:18;;;;;;;;;;;22.20;99.90;;;;;;5093492;28;20356;-68
2023/09/01 05:29:44;;;;;;;;;;;23.10;99.90;;;;;;5093459;28;19908;-69
2023/09/01 05:32:10;;;;;;;;;;;23.40;99.90;;;;;;5093591;28;19922;-69
2023/09/01 05:34:36;;;;;;;;;;;24.90;99.90;;;;;;5093101;28;20014;-69
2023/09/01 05:37:02;;;;;;;;;;;24.70;99.90;;;;;;5105928;28;19970;-68
2023/09/01 05:39:28;;;;;;;;;;;24.20;99.90;;;;;;5113715;28;19908;-70
2023/09/01 05:41:54;;;;;;;;;;;24.40;99.90;;;;;;5113829;28;19922;-68
2023/09/01 05:44:20;;;;;;;;;;;24.70;99.90;;;;;;5114387;28;19915;-69
2023/09/01 05:46:46;;;;;;;;;;;25.50;99.90;;;;;;5095434;28;19915;-70
2023/09/01 05:49:12;;;;;;;;;;;25.70;99.90;;;;;;5113739;28;19916;-69
2023/09/01 05:51:37;;;;;;;;;;;26.40;99.90;;;;;;5113992;28;19908;-69
2023/09/01 05:54:03;;;;;;;;;;;27.30;99.90;;;;;;5113425;28;20010;-68
2023/09/01 05:56:29;;;;;;;;;;;28.40;99.90;;;;;;5095256;28;19914;-69
2023/09/01 05:58:55;;;;;;;;;;;27.20;99.90;;;;;;5113477;28;19926;-69
2023/09/01 06:01:20;;;;;;;;;;;27.60;99.90;;;;;;5113804;28;19908;-69
2023/09/01 06:03:46;;;;;;;;;;;27.30;99.90;;;;;;5113259;28;20336;-69
2023/09/01 06:06:12;;;;;;;;;;;28.00;99.90;;;;;;5113201;28;20363;-69
2023/09/01 06:08:38;;;;;;;;;;;27.80;99.90;;;;;;5094783;28;19915;-69
2023/09/01 06:11:09;;;;;;;;;;;27.40;99.90;;;;;;5113876;28;19972;-69
2023/09/01 06:13:36;;;;;;;;;;;26.60;99.90;;;;;;5113445;28;19915;-69
2023/09/01 06:16:05;;;;;;;;;;;27.30;99.90;;;;;;5113304;28;19908;-70
2023/09/01 06:18:31;;;;;;;;;;;28.40;99.90;;;;;;5113216;28;19978;-69
2023/09/01 06:20:56;;;;;;;;;;;29.40;99.90;;;;;;5113769;28;19908;-69
2023/09/01 06:23:22;;;;;;;;;;;29.40;99.90;;;;;;5113442;28;19907;-69
2023/09/01 06:25:48;;;;;;;;;;;29.10;99.90;;;;;;5113277;28;19953;-71
2023/09/01 06:28:14;;;;;;;;;;;29.40;99.90;;;;;;5113322;28;19919;-68
2023/09/01 06:30:41;;;;;;;;;;;28.60;99.90;;;;;;5113541;28;19957;-69
2023/09/01 06:33:08;;;;;;;;;;;29.10;99.90;;;;;;5113247;28;20355;-70
2023/09/01 06:35:34;;;;;;;;;;;28.90;99.90;;;;;;5094574;28;19908;-69
2023/09/01 06:38:01;;;;;;;;;;;29.60;99.90;;;;;;5113852;28;19927;-68
2023/09/01 06:40:27;;;;;;;;;;;29.20;99.90;;;;;;5112871;28;19908;-69
2023/09/01 06:42:52;;;;;;;;;;;29.20;99.90;;;;;;5113179;28;19908;-69
2023/09/01 06:45:18;;;;;;;;;;;29.50;99.90;;;;;;5113504;28;20343;-69
2023/09/01 06:47:44;;;;;;;;;;;28.60;99.90;;;;;;5094732;28;19923;-69
2023/09/01 06:50:11;;;;;;;;;;;28.70;99.90;;;;;;5097971;28;19943;-68
2023/09/01 06:52:36;;;;;;;;;;;27.90;99.90;;;;;;5116547;28;19911;-69
2023/09/01 06:55:02;;;;;;;;;;;27.50;99.90;;;;;;5116782;28;19977;-68
2023/09/01 06:57:28;;;;;;;;;;;27.60;99.90;;;;;;5116821;28;19908;-69
2023/09/01 06:59:54;;;;;;;;;;;28.60;99.90;;;;;;5116746;28;20283;-69
2023/09/01 07:02:20;;;;;;;;;;;30.70;99.90;;;;;;5116828;28;19912;-69
2023/09/01 07:04:46;;;;;;;;;;;31.40;99.90;;;;;;5116962;28;19915;-68
2023/09/01 07:07:11;;;;;;;;;;;31.80;99.90;;;;;;5116437;28;19961;-69
2023/09/01 07:09:37;;;;;;;;;;;32.10;99.90;;;;;;5116399;28;19907;-68
2023/09/01 07:12:04;;;;;;;;;;;31.60;99.90;;;;;;5117009;28;19990;-69
2023/09/01 07:14:29;;;;;;;;;;;32.20;99.90;;;;;;5116545;28;20054;-69
2023/09/01 07:16:55;;;;;;;;;;;32.50;99.90;;;;;;5116936;28;19952;-69
2023/09/01 07:19:21;;;;;;;;;;;30.50;99.90;;;;;;5116638;28;20402;-69
2023/09/01 07:21:47;;;;;;;;;;;29.40;99.90;;;;;;5116369;28;19908;-69
2023/09/01 07:24:12;;;;;;;;;;;29.10;99.90;;;;;;5116019;28;19947;-69
2023/09/01 07:26:38;;;;;;;;;;;29.70;99.90;;;;;;5116582;28;19908;-69
2023/09/01 07:29:04;;;;;;;;;;;30.20;99.90;;;;;;5116355;28;19912;-69
2023/09/01 07:31:30;;;;;;;;;;;29.10;99.90;;;;;;5116553;28;19919;-68
2023/09/01 07:33:57;;;;;;;;;;;28.70;99.90;;;;;;5116091;28;19912;-69
2023/09/01 07:36:22;;;;;;;;;;;29.00;99.90;;;;;;5116113;28;20036;-70
2023/09/01 07:38:48;;;;;;;;;;;29.00;99.90;;;;;;5115992;28;19912;-70
2023/09/01 07:41:14;;;;;;;;;;;29.10;99.90;;;;;;5116712;28;19908;-70
2023/09/01 07:43:40;;;;;;;;;;;28.20;99.90;;;;;;5116347;28;19999;-70
2023/09/01 07:46:06;;;;;;;;;;;27.40;99.90;;;;;;5116016;28;19908;-70
2023/09/01 07:48:32;;;;;;;;;;;27.70;99.90;;;;;;5115623;28;19920;-70
2023/09/01 07:50:57;;;;;;;;;;;27.90;99.90;;;;;;5097433;28;19915;-70
2023/09/01 07:53:23;;;;;;;;;;;27.80;99.90;;;;;;5115850;28;19911;-70
2023/09/01 07:55:49;;;;;;;;;;;28.80;99.90;;;;;;5097231;28;20228;-70
2023/09/01 07:58:15;;;;;;;;;;;29.00;99.90;;;;;;5097180;28;20011;-69
2023/09/01 08:00:41;;;;;;;;;;;28.60;99.90;;;;;;5096522;28;19908;-70
2023/09/01 08:03:10;;;;;;;;;;;28.10;99.90;;;;;;5116217;28;19908;-69
2023/09/01 08:05:39;;;;;;;;;;;28.10;99.90;;;;;;5115645;28;19908;-70
2023/09/01 08:08:05;;;;;;;;;;;29.00;99.90;;;;;;5115603;28;19922;-70
2023/09/01 08:10:31;;;;;;;;;;;29.70;99.90;;;;;;5115346;28;20377;-70
2023/09/01 08:12:57;;;;;;;;;;;29.10;99.90;;;;;;5115388;28;19915;-69
2023/09/01 08:15:23;;;;;;;;;;;28.30;99.90;;;;;;5115383;28;19931;-70
2023/09/01 08:17:50;;;;;;;;;;;28.30;99.90;;;;;;5115211;28;20313;-69
2023/09/01 08:20:17;;;;;;;;;;;28.20;99.90;;;;;;5115303;28;20011;-70
2023/09/01 08:22:43;;;;;;;;;;;28.50;99.90;;;;;;5115246;28;20007;-70
2023/09/01 08:25:09;;;;;;;;;;;28.20;99.90;;;;;;5114899;28;19947;-70
2023/09/01 08:27:35;;;;;;;;;;;28.00;99.90;;;;;;5096809;28;19916;-70
2023/09/01 08:30:01;;;;;;;;;;;28.60;99.90;;;;;;5115316;28;19981;-69
2023/09/01 08:32:27;;;;;;;;;;;28.10;99.90;;;;;;5115144;28;19916;-68
2023/09/01 08:34:53;;;;;;;;;;;27.20;99.90;;;;;;5115117;28;19933;-69
2023/09/01 08:37:20;;;;;;;;;;;27.70;99.90;;;;;;5114940;28;19970;-69
2023/09/01 08:39:46;;;;;;;;;;;27.70;99.90;;;;;;5096262;28;19975;-70
2023/09/01 08:42:12;;;;;;;;;;;27.60;99.90;;;;;;5114935;28;20294;-69
2023/09/01 08:44:39;;;;;;;;;;;27.90;99.90;;;;;;5096386;28;19960;-69
2023/09/01 08:47:05;;;;;;;;;;;27.70;99.90;;;;;;5114746;28;20359;-69
2023/09/01 08:49:32;;;;;;;;;;;28.10;99.90;;;;;;5114312;28;19912;-69
2023/09/01 08:51:59;;;;;;;;;;;28.30;99.90;;;;;;5115185;28;19952;-69
2023/09/01 08:54:25;;;;;;;;;;;28.40;99.90;;;;;;5114660;28;19907;-69
2023/09/01 08:56:51;;;;;;;;;;;28.40;99.90;;;;;;5114968;28;19908;-69
2023/09/01 08:59:17;;;;;;;;;;;28.40;99.90;;;;;;5096246;28;19914;-69
2023/09/01 09:01:43;;;;;;;;;;;28.50;99.90;;;;;;5114511;28;19998;-69
2023/09/01 09:04:08;;;;;;;;;;;28.30;99.90;;;;;;5114454;28;20259;-69
2023/09/01 09:06:35;;;;;;;;;;;28.60;99.90;;;;;;5114561;28;19961;-71
2023/09/01 09:09:05;;;;;;;;;;;28.70;99.90;;;;;;5113954;28;19965;-69
2023/09/01 09:11:32;;;;;;;;;;;29.00;99.90;;;;;;5095848;28;19919;-69
2023/09/01 09:13:57;;;;;;;;;;;28.40;99.90;;;;;;5114793;28;19930;-69
2023/09/01 09:16:23;;;;;;;;;;;28.50;99.90;;;;;;5114378;28;20423;-70
2023/09/01 09:18:49;;;;;;;;;;;28.50;99.90;;;;;;5114567;28;19908;-69
2023/09/01 09:21:21;;;;;;;;;;;28.40;99.90;;;;;;5113964;28;20272;-69
2023/09/01 09:23:47;;;;;;;;;;;28.60;99.90;;;;;;5113884;28;19915;-70
2023/09/01 09:26:13;;;;;;;;;;;29.10;99.90;;;;;;5113764;28;20299;-70
2023/09/01 09:28:39;;;;;;;;;;;29.40;99.90;;;;;;5113563;28;19916;-69
2023/09/01 09:31:04;;;;;;;;;;;29.20;99.90;;;;;;5113837;28;20002;-69
2023/09/01 09:33:31;;;;;;;;;;;29.40;99.90;;;;;;5113694;28;20381;-69
2023/09/01 09:35:57;;;;;;;;;;;29.40;99.90;;;;;;5113418;28;19918;-69
2023/09/01 09:38:23;;;;;;;;;;;28.90;99.90;;;;;;5114209;28;19912;-69
2023/09/01 09:40:55;;;;;;;;;;;28.90;99.90;;;;;;5113616;28;19960;-69
2023/09/01 09:43:21;;;;;;;;;;;29.20;99.90;;;;;;5113805;28;19908;-69
2023/09/01 09:45:47;;;;;;;;;;;29.60;99.90;;;;;;5113612;28;19907;-69
2023/09/01 09:48:14;;;;;;;;;;;29.80;99.90;;;;;;5113514;28;20274;-68
2023/09/01 09:50:41;;;;;;;;;;;29.60;99.90;;;;;;5114050;28;19912;-69
2023/09/01 09:53:07;;;;;;;;;;;29.40;99.90;;;;;;5113801;28;19908;-69
2023/09/01 09:55:34;;;;;;;;;;;29.70;99.90;;;;;;5094991;28;19915;-69
2023/09/01 09:58:04;;;;;;;;;;;29.80;99.90;;;;;;5095206;28;19915;-69
2023/09/01 10:00:31;;;;;;;;;;;29.80;99.90;;;;;;5113684;28;20063;-69
2023/09/01 10:03:00;;;;;;;;;;;29.80;99.90;;;;;;5114070;28;19908;-68
2023/09/01 10:05:28;;;;;;;;;;;29.50;99.90;;;;;;5113455;28;19919;-71
2023/09/01 10:07:55;;;;;;;;;;;29.60;99.90;;;;;;5113478;28;19916;-69
2023/09/01 10:10:22;;;;;;;;;;;29.70;99.90;;;;;;5113361;28;20339;-69
2023/09/01 10:12:47;;;;;;;;;;;29.50;99.90;;;;;;5113576;28;19915;-69
2023/09/01 10:15:14;;;;;;;;;;;29.50;99.90;;;;;;5113438;28;19907;-69
2023/09/01 10:17:40;;;;;;;;;;;29.50;99.90;;;;;;5113314;28;20002;-69
2023/09/01 10:20:07;;;;;;;;;;;29.70;99.90;;;;;;5113602;28;19943;-69
2023/09/01 10:22:38;;;;;;;;;;;29.60;99.90;;;;;;5113605;28;20342;-71
2023/09/01 10:25:11;;;;;;;;;;;29.70;99.90;;;;;;5116630;28;20424;-69
2023/09/01 10:27:37;;;;;;;;;;;29.50;99.90;;;;;;5117606;28;19923;-69
2023/09/01 10:30:21;;;;;;;;;;;29.60;99.90;;;;;;5117943;28;19911;-69
2023/09/01 10:32:47;;;;;;;;;;;29.20;99.90;;;;;;5117653;28;19947;-70
2023/09/01 10:35:13;;;;;;;;;;;29.10;99.90;;;;;;5117707;28;19960;-69
2023/09/01 10:37:39;;;;;;;;;;;29.20;99.90;;;;;;5117188;28;19919;-70
2023/09/01 10:40:24;;;;;;;;;;;29.40;99.90;;;;;;5117440;28;20313;-71
2023/09/01 10:42:50;;;;;;;;;;;29.30;99.90;;;;;;5117512;28;19918;-70
2023/09/01 10:45:16;;;;;;;;;;;28.70;99.90;;;;;;5117041;28;19912;-70
2023/09/01 10:47:43;;;;;;;;;;;29.10;99.90;;;;;;5116912;28;19924;-70
2023/09/01 10:50:12;;;;;;;;;;;29.40;99.90;;;;;;5117039;28;19984;-70
2023/09/01 10:52:38;;;;;;;;;;;29.30;99.90;;;;;;5116874;28;19908;-69
2023/09/01 10:55:05;;;;;;;;;;;29.20;99.90;;;;;;5117202;28;20279;-70
2023/09/01 10:57:43;;;;;;;;;;;28.90;99.90;;;;;;5116849;28;20367;-70
2023/09/01 11:00:29;;;;;;;;;;;29.10;99.90;;;;;;5117223;28;20202;-69
2023/09/01 11:03:13;;;;;;;;;;;29.10;99.90;;;;;;5116926;28;20427;-71
2023/09/01 11:05:39;;;;;;;;;;;28.70;99.90;;;;;;5116947;28;19951;-70
2023/09/01 11:08:15;;;;;;;;;;;28.90;99.90;;;;;;5116810;28;19966;-69
2023/09/01 11:10:41;;;;;;;;;;;28.90;99.90;;;;;;5116369;28;20298;-71
2023/09/01 11:13:14;;;;;;;;;;;29.00;99.90;;;;;;5116683;28;19908;-70
2023/09/01 11:15:46;;;;;;;;;;;28.90;99.90;;;;;;5116211;28;19962;-71
2023/09/01 11:18:16;;;;;;;;;;;29.10;99.90;;;;;;5116463;28;19930;-69
2023/09/01 11:20:43;;;;;;;;;;;29.30;99.90;;;;;;5116305;28;19965;-69
2023/09/01 11:23:09;;;;;;;;;;;29.40;99.90;;;;;;5116592;28;19980;-69
2023/09/01 11:25:35;;;;;;;;;;;29.60;99.90;;;;;;5116285;28;20429;-69
2023/09/01 11:28:01;;;;;;;;;;;29.60;99.90;;;;;;5116316;28;19923;-69
2023/09/01 11:30:27;;;;;;;;;;;29.60;99.90;;;;;;5116250;28;19930;-70
2023/09/01 11:32:52;;;;;;;;;;;29.90;99.90;;;;;;5116415;28;19908;-69
2023/09/01 11:35:22;;;;;;;;;;;29.70;99.90;;;;;;5114737;28;19908;-69
2023/09/01 11:37:47;;;;;;;;;;;29.40;99.90;;;;;;5115964;28;19920;-70
2023/09/01 11:40:13;;;;;;;;;;;29.20;99.90;;;;;;5115255;28;20002;-69
2023/09/01 11:42:40;;;;;;;;;;;29.20;99.90;;;;;;5115643;28;19908;-69
2023/09/01 11:45:07;;;;;;;;;;;29.50;99.90;;;;;;5116223;28;19907;-70
2023/09/01 11:47:33;;;;;;;;;;;29.20;99.90;;;;;;5115824;28;20377;-69
2023/09/01 11:49:59;;;;;;;;;;;29.00;99.90;;;;;;5115811;28;20017;-69
2023/09/01 11:52:25;;;;;;;;;;;29.20;99.90;;;;;;5115738;28;19930;-69
2023/09/01 11:54:54;;;;;;;;;;;29.30;99.90;;;;;;5115480;28;20371;-69
2023/09/01 11:57:20;;;;;;;;;;;29.10;99.90;;;;;;5115766;28;20294;-69
2023/09/01 11:59:47;;;;;;;;;;;29.60;99.90;;;;;;5115371;28;20013;-71
2023/09/01 12:02:13;;;;;;;;;;;29.60;99.90;;;;;;5115349;28;19969;-69
2023/09/01 12:04:49;;;;;;;;;;;29.70;99.90;;;;;;5115447;28;19915;-69
2023/09/01 12:07:29;;;;;;;;;;;29.50;99.90;;;;;;5115323;28;20371;-69
2023/09/01 12:09:55;;;;;;;;;;;29.60;99.90;;;;;;5097249;28;19916;-69
2023/09/01 12:12:21;;;;;;;;;;;29.40;99.90;;;;;;5115847;28;19984;-69
2023/09/01 12:14:47;;;;;;;;;;;29.60;99.90;;;;;;5115412;28;19907;-69
2023/09/01 12:17:17;;;;;;;;;;;29.80;99.90;;;;;;5115772;28;19931;-69
2023/09/01 12:19:47;;;;;;;;;;;29.90;99.90;;;;;;5115182;28;19994;-69
2023/09/01 12:22:13;;;;;;;;;;;30.10;99.90;;;;;;5115297;28;19908;-70
2023/09/01 12:24:48;;;;;;;;;;;30.00;99.90;;;;;;5115293;28;20228;-69
2023/09/01 12:27:14;;;;;;;;;;;29.90;99.90;;;;;;5115469;28;19915;-69
2023/09/01 12:29:40;;;;;;;;;;;30.10;99.90;;;;;;5115119;28;19998;-69
2023/09/01 12:32:05;;;;;;;;;;;30.00;99.90;;;;;;5115660;28;20229;-69
2023/09/01 12:34:31;;;;;;;;;;;30.20;99.90;;;;;;5096922;28;19907;-69
2023/09/01 12:36:57;;;;;;;;;;;29.80;99.90;;;;;;5114814;28;19920;-69
2023/09/01 12:39:23;;;;;;;;;;;29.30;99.90;;;;;;5115328;28;19908;-69
2023/09/01 12:41:49;;;;;;;;;;;29.30;99.90;;;;;;5115048;28;20428;-69
2023/09/01 12:44:14;;;;;;;;;;;29.50;99.90;;;;;;5114938;28;19908;-69
2023/09/01 12:46:40;;;;;;;;;;;29.60;99.90;;;;;;5114532;28;19998;-69
2023/09/01 12:49:06;;;;;;;;;;;29.70;99.90;;;;;;5114936;28;20398;-71
2023/09/01 12:51:32;;;;;;;;;;;29.60;99.90;;;;;;5115398;28;19961;-69
2023/09/01 12:53:57;;;;;;;;;;;29.80;99.90;;;;;;5114687;28;20392;-70
2023/09/01 12:56:23;;;;;;;;;;;29.90;99.90;;;;;;5114665;28;19908;-70
2023/09/01 12:58:49;;;;;;;;;;;30.20;99.90;;;;;;5115174;28;19911;-70
2023/09/01 13:01:15;;;;;;;;;;;30.10;99.90;;;;;;5115057;28;19908;-70
2023/09/01 13:03:41;;;;;;;;;;;29.80;99.90;;;;;;5114784;28;19958;-70
2023/09/01 13:06:10;;;;;;;;;;;29.70;99.90;;;;;;5115056;28;19908;-70
2023/09/01 13:08:36;;;;;;;;;;;29.90;99.90;;;;;;5114663;28;19923;-69
2023/09/01 13:11:07;;;;;;;;;;;30.00;99.90;;;;;;5114608;28;19908;-70
2023/09/01 13:13:33;;;;;;;;;;;29.80;99.90;;;;;;5114469;28;20002;-68
2023/09/01 13:15:58;;;;;;;;;;;30.00;99.90;;;;;;5114387;28;20037;-68
2023/09/01 13:18:24;;;;;;;;;;;29.80;99.90;;;;;;5114417;28;20414;-69
2023/09/01 13:20:50;;;;;;;;;;;29.90;99.90;;;;;;5114368;28;19908;-68
2023/09/01 13:23:16;;;;;;;;;;;29.90;99.90;;;;;;5114270;28;19981;-68
2023/09/01 13:25:42;;;;;;;;;;;29.70;99.90;;;;;;5114217;28;19930;-68
2023/09/01 13:28:07;;;;;;;;;;;29.80;99.90;;;;;;5114221;28;19969;-68
2023/09/01 13:30:36;;;;;;;;;;;29.90;99.90;;;;;;5114244;28;19954;-68
2023/09/01 13:33:02;;;;;;;;;;;30.00;99.90;;;;;;5114074;28;19954;-68
2023/09/01 13:35:28;;;;;;;;;;;30.00;99.90;;;;;;5113900;28;19954;-70
2023/09/01 13:37:54;;;;;;;;;;;30.30;99.90;;;;;;5113816;28;19920;-68
2023/09/01 13:40:20;;;;;;;;;;;30.40;99.90;;;;;;5114183;28;20249;-68
2023/09/01 13:42:46;;;;;;;;;;;30.20;99.90;;;;;;5114030;28;19915;-70
2023/09/01 13:45:11;;;;;;;;;;;30.00;99.90;;;;;;5113955;28;19912;-70
2023/09/01 13:47:37;;;;;;;;;;;30.00;99.90;;;;;;5113962;28;20422;-69
2023/09/01 13:50:03;;;;;;;;;;;30.30;99.90;;;;;;5113851;28;20382;-69
2023/09/01 13:52:29;;;;;;;;;;;30.40;99.90;;;;;;5114069;28;20390;-69
2023/09/01 13:54:56;;;;;;;;;;;30.60;99.90;;;;;;5114241;28;19907;-69
2023/09/01 13:57:22;;;;;;;;;;;30.40;99.90;;;;;;5114110;28;19974;-69
2023/09/01 13:59:48;;;;;;;;;;;30.30;99.90;;;;;;5094815;28;20391;-70
2023/09/01 14:02:15;;;;;;;;;;;30.30;99.90;;;;;;5113681;28;19908;-69
2023/09/01 14:04:41;;;;;;;;;;;30.30;99.90;;;;;;5113832;28;19908;-70
2023/09/01 14:07:07;;;;;;;;;;;30.40;99.90;;;;;;5113641;28;19911;-68
2023/09/01 14:09:34;;;;;;;;;;;30.50;99.90;;;;;;5113582;28;20010;-69
2023/09/01 14:12:00;;;;;;;;;;;30.50;99.90;;;;;;5114181;28;19936;-68
2023/09/01 14:14:26;;;;;;;;;;;30.40;99.90;;;;;;5113739;28;20321;-69